sensor_id;sensor_type;location;lat;lon;timestamp;pressure;altitude;pressure_sealevel;temperature;humidity
75972;BME280;64651;47.540;19.088;2023-12-07T00:01:59;100144.09;;;21.91;36.72
75972;BME280;64651;47.540;19.088;2023-12-07T00:07:01;100144.09;;;21.91;36.94
75972;BME280;64651;47.540;19.088;2023-12-07T00:12:03;100152.09;;;21.89;37.03
75972;BME280;64651;47.540;19.088;2023-12-07T00:17:06;100153.69;;;21.90;36.92
75972;BME280;64651;47.540;19.088;2023-12-07T00:22:08;100147.72;;;21.92;36.87
75972;BME280;64651;47.540;19.088;2023-12-07T00:27:10;100155.66;;;21.90;36.88
75972;BME280;64651;47.540;19.088;2023-12-07T00:32:12;100144.94;;;21.92;36.76
75972;BME280;64651;47.540;19.088;2023-12-07T00:37:14;100148.91;;;21.91;36.90
75972;BME280;64651;47.540;19.088;2023-12-07T00:42:16;100148.53;;;21.92;36.69
75972;BME280;64651;47.540;19.088;2023-12-07T00:47:19;100151.34;;;21.92;36.83
75972;BME280;64651;47.540;19.088;2023-12-07T00:52:21;100154.88;;;21.89;36.89
75972;BME280;64651;47.540;19.088;2023-12-07T00:57:24;100153.31;;;21.92;36.97
75972;BME280;64651;47.540;19.088;2023-12-07T01:02:26;100149.28;;;21.89;36.90
75972;BME280;64651;47.540;19.088;2023-12-07T01:07:29;100158.84;;;21.88;36.99
75972;BME280;64651;47.540;19.088;2023-12-07T01:12:31;100142.75;;;21.85;36.91
75972;BME280;64651;47.540;19.088;2023-12-07T01:17:33;100145.56;;;21.85;36.94
75972;BME280;64651;47.540;19.088;2023-12-07T01:22:35;100147.66;;;21.88;36.91
75972;BME280;64651;47.540;19.088;2023-12-07T01:27:38;100138.78;;;21.86;36.79
75972;BME280;64651;47.540;19.088;2023-12-07T01:32:40;100145.56;;;21.85;36.83
75972;BME280;64651;47.540;19.088;2023-12-07T01:37:42;100137.88;;;21.82;36.98
75972;BME280;64651;47.540;19.088;2023-12-07T01:42:53;100133.47;;;21.81;36.79
75972;BME280;64651;47.540;19.088;2023-12-07T01:47:56;100126.69;;;21.82;36.83
75972;BME280;64651;47.540;19.088;2023-12-07T01:53:02;100138.78;;;21.86;36.71
75972;BME280;64651;47.540;19.088;2023-12-07T01:58:08;100133.91;;;21.83;36.72
75972;BME280;64651;47.540;19.088;2023-12-07T02:03:11;100136.34;;;21.84;36.75
75972;BME280;64651;47.540;19.088;2023-12-07T02:08:14;100139.94;;;21.85;36.72
75972;BME280;64651;47.540;19.088;2023-12-07T02:13:16;100138.78;;;21.86;36.76
75972;BME280;64651;47.540;19.088;2023-12-07T02:19:01;100127.50;;;21.82;36.62
75972;BME280;64651;47.540;19.088;2023-12-07T02:24:06;100129.56;;;21.85;36.75
75972;BME280;64651;47.540;19.088;2023-12-07T02:29:08;100130.66;;;21.81;36.73
75972;BME280;64651;47.540;19.088;2023-12-07T02:34:11;100132.28;;;21.82;36.71
75972;BME280;64651;47.540;19.088;2023-12-07T02:39:14;100133.00;;;21.79;36.72
75972;BME280;64651;47.540;19.088;2023-12-07T02:44:16;100137.88;;;21.82;36.71
75972;BME280;64651;47.540;19.088;2023-12-07T02:49:18;100136.72;;;21.83;36.81
75972;BME280;64651;47.540;19.088;2023-12-07T02:54:20;100144.75;;;21.84;36.76
75972;BME280;64651;47.540;19.088;2023-12-07T02:59:23;100137.16;;;21.85;36.73
75972;BME280;64651;47.540;19.088;2023-12-07T03:04:25;100140.78;;;21.85;36.87
75972;BME280;64651;47.540;19.088;2023-12-07T03:09:27;100135.78;;;21.79;36.92
75972;BME280;64651;47.540;19.088;2023-12-07T03:14:29;100139.88;;;21.81;36.81
75972;BME280;64651;47.540;19.088;2023-12-07T03:19:31;100151.91;;;21.82;36.87
75972;BME280;64651;47.540;19.088;2023-12-07T03:24:37;100147.94;;;21.83;36.90
75972;BME280;64651;47.540;19.088;2023-12-07T03:29:39;100159.47;;;21.81;36.84
75972;BME280;64651;47.540;19.088;2023-12-07T03:34:41;100163.81;;;21.79;36.88
75972;BME280;64651;47.540;19.088;2023-12-07T03:39:44;100157.03;;;21.80;36.79
75972;BME280;64651;47.540;19.088;2023-12-07T03:44:46;100164.28;;;21.81;36.81
75972;BME280;64651;47.540;19.088;2023-12-07T03:49:48;100163.44;;;21.80;36.82
75972;BME280;64651;47.540;19.088;2023-12-07T03:54:50;100163.81;;;21.79;36.78
75972;BME280;64651;47.540;19.088;2023-12-07T03:59:52;100175.47;;;21.81;36.77
75972;BME280;64651;47.540;19.088;2023-12-07T04:04:55;100177.81;;;21.79;36.74
75972;BME280;64651;47.540;19.088;2023-12-07T04:09:57;100181.06;;;21.81;36.63
75972;BME280;64651;47.540;19.088;2023-12-07T04:15:00;100187.03;;;21.79;36.67
75972;BME280;64651;47.540;19.088;2023-12-07T04:20:02;100185.78;;;21.77;36.69
75972;BME280;64651;47.540;19.088;2023-12-07T04:25:05;100182.97;;;21.77;36.67
75972;BME280;64651;47.540;19.088;2023-12-07T04:30:08;100191.81;;;21.79;36.59
75972;BME280;64651;47.540;19.088;2023-12-07T04:35:10;100191.38;;;21.77;36.60
75972;BME280;64651;47.540;19.088;2023-12-07T04:40:12;100202.19;;;21.78;36.57
75972;BME280;64651;47.540;19.088;2023-12-07T04:45:15;100199.06;;;21.80;36.57
75972;BME280;64651;47.540;19.088;2023-12-07T04:50:17;100206.63;;;21.79;36.59
75972;BME280;64651;47.540;19.088;2023-12-07T04:55:19;100204.19;;;21.78;36.55
75972;BME280;64651;47.540;19.088;2023-12-07T05:00:21;100213.06;;;21.80;36.49
75972;BME280;64651;47.540;19.088;2023-12-07T05:05:24;100222.97;;;21.77;36.59
75972;BME280;64651;47.540;19.088;2023-12-07T05:10:26;100227.06;;;21.80;36.58
75972;BME280;64651;47.540;19.088;2023-12-07T05:15:29;100225.06;;;21.80;36.51
75972;BME280;64651;47.540;19.088;2023-12-07T05:20:31;100236.28;;;21.80;36.45
75972;BME280;64651;47.540;19.088;2023-12-07T05:25:33;100235.94;;;21.82;36.44
75972;BME280;64651;47.540;19.088;2023-12-07T05:30:36;100246.66;;;21.80;36.63
75972;BME280;64651;47.540;19.088;2023-12-07T05:35:38;100241.06;;;21.80;36.56
75972;BME280;64651;47.540;19.088;2023-12-07T05:40:40;100257.41;;;21.78;36.50
75972;BME280;64651;47.540;19.088;2023-12-07T05:45:43;100263.47;;;21.80;36.45
75972;BME280;64651;47.540;19.088;2023-12-07T05:50:45;100262.19;;;21.77;36.54
75972;BME280;64651;47.540;19.088;2023-12-07T05:55:47;100262.66;;;21.79;36.51
75972;BME280;64651;47.540;19.088;2023-12-07T06:00:49;100267.09;;;21.80;36.45
75972;BME280;64651;47.540;19.088;2023-12-07T06:05:52;100279.94;;;21.81;36.60
75972;BME280;64651;47.540;19.088;2023-12-07T06:10:54;100283.91;;;21.80;36.50
75972;BME280;64651;47.540;19.088;2023-12-07T06:15:56;100291.47;;;21.80;36.56
75972;BME280;64651;47.540;19.088;2023-12-07T06:20:58;100293.81;;;21.78;36.52
75972;BME280;64651;47.540;19.088;2023-12-07T06:26:02;100289.03;;;21.78;36.50
75972;BME280;64651;47.540;19.088;2023-12-07T06:31:05;100291.00;;;21.78;36.50
75972;BME280;64651;47.540;19.088;2023-12-07T06:36:10;100299.88;;;21.80;36.52
75972;BME280;64651;47.540;19.088;2023-12-07T06:41:14;100299.41;;;21.78;36.53
75972;BME280;64651;47.540;19.088;2023-12-07T06:46:16;100304.13;;;21.74;36.48
75972;BME280;64651;47.540;19.088;2023-12-07T06:51:19;100310.75;;;21.81;36.56
75972;BME280;64651;47.540;19.088;2023-12-07T06:56:21;100326.00;;;21.84;36.63
75972;BME280;64651;47.540;19.088;2023-12-07T07:01:23;100326.72;;;21.81;36.84
75972;BME280;64651;47.540;19.088;2023-12-07T07:06:25;100333.16;;;21.81;36.89
75972;BME280;64651;47.540;19.088;2023-12-07T07:11:27;100333.50;;;21.80;36.96
75972;BME280;64651;47.540;19.088;2023-12-07T07:16:30;100329.88;;;21.79;37.11
75972;BME280;64651;47.540;19.088;2023-12-07T07:21:33;100340.75;;;21.81;37.15
75972;BME280;64651;47.540;19.088;2023-12-07T07:26:35;100346.00;;;21.82;36.99
75972;BME280;64651;47.540;19.088;2023-12-07T07:31:37;100348.41;;;21.84;37.20
75972;BME280;64651;47.540;19.088;2023-12-07T07:36:40;100349.22;;;21.84;37.01
75972;BME280;64651;47.540;19.088;2023-12-07T07:41:42;100339.09;;;21.80;36.92
75972;BME280;64651;47.540;19.088;2023-12-07T07:46:45;100362.81;;;21.82;36.92
75972;BME280;64651;47.540;19.088;2023-12-07T07:51:48;100360.44;;;21.84;36.85
75972;BME280;64651;47.540;19.088;2023-12-07T07:56:51;100366.41;;;21.83;37.97
75972;BME280;64651;47.540;19.088;2023-12-07T08:01:53;100371.56;;;21.81;37.45
75972;BME280;64651;47.540;19.088;2023-12-07T08:06:55;100372.37;;;21.81;37.43
75972;BME280;64651;47.540;19.088;2023-12-07T08:11:57;100380.66;;;21.78;37.03
75972;BME280;64651;47.540;19.088;2023-12-07T08:16:59;100378.31;;;21.80;36.92
75972;BME280;64651;47.540;19.088;2023-12-07T08:22:02;100380.66;;;21.78;36.93
75972;BME280;64651;47.540;19.088;2023-12-07T08:27:04;100380.66;;;21.78;36.61
75972;BME280;64651;47.540;19.088;2023-12-07T08:32:07;100380.22;;;21.76;36.61
75972;BME280;64651;47.540;19.088;2023-12-07T08:37:09;100381.47;;;21.78;36.49
75972;BME280;64651;47.540;19.088;2023-12-07T08:42:11;100382.28;;;21.79;36.39
75972;BME280;64651;47.540;19.088;2023-12-07T08:47:13;100389.87;;;21.78;36.45
75972;BME280;64651;47.540;19.088;2023-12-07T08:52:15;100384.28;;;21.78;36.49
75972;BME280;64651;47.540;19.088;2023-12-07T08:57:36;100385.22;;;21.82;37.64
75972;BME280;64651;47.540;19.088;2023-12-07T09:02:39;100390.09;;;21.85;37.63
75972;BME280;64651;47.540;19.088;2023-12-07T09:07:49;100389.75;;;21.87;37.65
75972;BME280;64651;47.540;19.088;2023-12-07T09:12:51;100377.25;;;21.84;37.80
75972;BME280;64651;47.540;19.088;2023-12-07T09:17:54;100405.38;;;21.88;38.33
75972;BME280;64651;47.540;19.088;2023-12-07T09:22:57;100397.34;;;20.98;35.64
75972;BME280;64651;47.540;19.088;2023-12-07T09:27:59;100395.72;;;21.21;36.77
75972;BME280;64651;47.540;19.088;2023-12-07T09:33:01;100388.94;;;21.34;36.60
75972;BME280;64651;47.540;19.088;2023-12-07T09:38:06;100394.16;;;21.48;36.76
75972;BME280;64651;47.540;19.088;2023-12-07T09:43:09;100391.56;;;21.55;36.75
75972;BME280;64651;47.540;19.088;2023-12-07T09:48:11;100382.56;;;21.62;37.00
75972;BME280;64651;47.540;19.088;2023-12-07T09:53:14;100384.44;;;21.70;37.05
75972;BME280;64651;47.540;19.088;2023-12-07T09:58:16;100386.50;;;21.73;37.06
75972;BME280;64651;47.540;19.088;2023-12-07T10:03:29;100386.97;;;21.75;37.09
75972;BME280;64651;47.540;19.088;2023-12-07T10:08:33;100381.84;;;21.77;37.17
75972;BME280;64651;47.540;19.088;2023-12-07T10:13:39;100389.78;;;21.75;37.25
75972;BME280;64651;47.540;19.088;2023-12-07T10:18:44;100390.34;;;21.80;37.37
75972;BME280;64651;47.540;19.088;2023-12-07T10:23:47;100387.19;;;21.82;37.59
75972;BME280;64651;47.540;19.088;2023-12-07T10:28:51;100387.88;;;21.79;37.84
75972;BME280;64651;47.540;19.088;2023-12-07T10:33:57;100382.41;;;21.82;38.11
75972;BME280;64651;47.540;19.088;2023-12-07T10:39:00;100385.31;;;21.86;38.17
75972;BME280;64651;47.540;19.088;2023-12-07T10:44:05;100387.41;;;21.89;38.22
75972;BME280;64651;47.540;19.088;2023-12-07T10:49:12;100387.41;;;21.89;39.09
75972;BME280;64651;47.540;19.088;2023-12-07T10:54:36;100391.53;;;21.67;34.88
75972;BME280;64651;47.540;19.088;2023-12-07T10:59:43;100393.00;;;21.49;33.22
75972;BME280;64651;47.540;19.088;2023-12-07T11:04:45;100403.13;;;21.41;31.80
75972;BME280;64651;47.540;19.088;2023-12-07T11:09:55;100405.75;;;21.34;31.03
75972;BME280;64651;47.540;19.088;2023-12-07T11:14:59;100412.03;;;21.19;31.92
75972;BME280;64651;47.540;19.088;2023-12-07T11:20:01;100405.28;;;21.20;32.99
75972;BME280;64651;47.540;19.088;2023-12-07T11:25:04;100409.00;;;21.24;33.38
75972;BME280;64651;47.540;19.088;2023-12-07T11:30:08;100406.66;;;21.26;33.76
75972;BME280;64651;47.540;19.088;2023-12-07T11:35:12;100402.94;;;21.34;33.92
75972;BME280;64651;47.540;19.088;2023-12-07T11:40:14;100404.56;;;21.35;34.26
75972;BME280;64651;47.540;19.088;2023-12-07T11:45:36;100402.69;;;21.39;34.36
75972;BME280;64651;47.540;19.088;2023-12-07T11:56:02;100401.03;;;21.51;34.66
75972;BME280;64651;47.540;19.088;2023-12-07T12:01:04;100407.56;;;21.55;34.84
75972;BME280;64651;47.540;19.088;2023-12-07T12:06:07;100399.50;;;21.53;34.90
75972;BME280;64651;47.540;19.088;2023-12-07T12:11:12;100412.47;;;21.58;35.05
75972;BME280;64651;47.540;19.088;2023-12-07T12:16:15;100406.97;;;21.61;35.10
75972;BME280;64651;47.540;19.088;2023-12-07T12:21:17;100419.81;;;21.62;35.08
75972;BME280;64651;47.540;19.088;2023-12-07T12:26:20;100418.16;;;21.61;35.85
75972;BME280;64651;47.540;19.088;2023-12-07T12:31:22;100417.09;;;21.66;35.92
75972;BME280;64651;47.540;19.088;2023-12-07T12:36:25;100417.56;;;21.68;35.97
75972;BME280;64651;47.540;19.088;2023-12-07T12:41:29;100418.72;;;21.67;36.14
75972;BME280;64651;47.540;19.088;2023-12-07T12:46:34;100424.22;;;21.63;36.26
75972;BME280;64651;47.540;19.088;2023-12-07T12:51:38;100433.09;;;21.65;36.22
75972;BME280;64651;47.540;19.088;2023-12-07T12:56:40;100425.41;;;21.62;36.18
75972;BME280;64651;47.540;19.088;2023-12-07T13:01:43;100436.69;;;21.66;36.23
75972;BME280;64651;47.540;19.088;2023-12-07T13:06:45;100441.13;;;21.67;36.15
75972;BME280;64651;47.540;19.088;2023-12-07T13:11:47;100446.38;;;21.68;36.19
75972;BME280;64651;47.540;19.088;2023-12-07T13:16:51;100445.81;;;21.63;36.47
75972;BME280;64651;47.540;19.088;2023-12-07T13:21:54;100451.53;;;21.66;36.31
75972;BME280;64651;47.540;19.088;2023-12-07T13:26:57;100455.03;;;21.63;36.66
75972;BME280;64651;47.540;19.088;2023-12-07T13:32:03;100460.75;;;21.67;36.88
75972;BME280;64651;47.540;19.088;2023-12-07T13:37:06;100463.53;;;21.67;37.02
75972;BME280;64651;47.540;19.088;2023-12-07T13:42:08;100461.56;;;21.67;37.02
75972;BME280;64651;47.540;19.088;2023-12-07T13:47:14;100467.28;;;21.71;37.04
75972;BME280;64651;47.540;19.088;2023-12-07T13:52:16;100474.50;;;21.72;37.08
75972;BME280;64651;47.540;19.088;2023-12-07T13:57:20;100480.09;;;21.72;37.21
75972;BME280;64651;47.540;19.088;2023-12-07T14:02:23;100476.47;;;21.71;37.17
75972;BME280;64651;47.540;19.088;2023-12-07T14:07:25;100478.50;;;21.71;37.14
75972;BME280;64651;47.540;19.088;2023-12-07T14:12:28;100480.09;;;21.72;37.22
75972;BME280;64651;47.540;19.088;2023-12-07T14:17:32;100494.09;;;21.72;37.15
75972;BME280;64651;47.540;19.088;2023-12-07T14:22:41;100500.19;;;21.74;37.12
75972;BME280;64651;47.540;19.088;2023-12-07T14:27:43;100510.09;;;21.71;37.13
75972;BME280;64651;47.540;19.088;2023-12-07T14:32:46;100521.28;;;21.71;37.08
75972;BME280;64651;47.540;19.088;2023-12-07T14:37:54;100524.09;;;21.71;37.04
75972;BME280;64651;47.540;19.088;2023-12-07T14:42:56;100533.31;;;21.72;37.04
75972;BME280;64651;47.540;19.088;2023-12-07T14:47:59;100536.13;;;21.72;37.06
75972;BME280;64651;47.540;19.088;2023-12-07T14:53:01;100544.41;;;21.68;37.07
75972;BME280;64651;47.540;19.088;2023-12-07T14:58:04;100548.13;;;21.72;37.05
75972;BME280;64651;47.540;19.088;2023-12-07T15:03:06;100550.13;;;21.72;36.98
75972;BME280;64651;47.540;19.088;2023-12-07T15:08:09;100554.12;;;21.71;37.05
75972;BME280;64651;47.540;19.088;2023-12-07T15:13:12;100566.09;;;21.71;37.20
75972;BME280;64651;47.540;19.088;2023-12-07T15:18:15;100568.47;;;21.69;37.15
75972;BME280;64651;47.540;19.088;2023-12-07T15:23:18;100582.91;;;21.71;37.20
75972;BME280;64651;47.540;19.088;2023-12-07T15:28:21;100573.72;;;21.71;37.21
75972;BME280;64651;47.540;19.088;2023-12-07T15:33:23;100588.50;;;21.71;37.20
75972;BME280;64651;47.540;19.088;2023-12-07T15:38:26;100590.53;;;21.71;37.20
75972;BME280;64651;47.540;19.088;2023-12-07T15:43:29;100589.72;;;21.70;37.29
75972;BME280;64651;47.540;19.088;2023-12-07T15:48:32;100597.72;;;21.72;37.13
75972;BME280;64651;47.540;19.088;2023-12-07T15:53:36;100586.53;;;21.72;37.25
75972;BME280;64651;47.540;19.088;2023-12-07T15:58:40;100591.69;;;21.70;37.21
75972;BME280;64651;47.540;19.088;2023-12-07T16:03:42;100602.53;;;21.71;37.28
75972;BME280;64651;47.540;19.088;2023-12-07T16:08:44;100613.72;;;21.71;37.17
75972;BME280;64651;47.540;19.088;2023-12-07T16:13:46;100612.94;;;21.71;37.20
75972;BME280;64651;47.540;19.088;2023-12-07T16:18:48;100620.16;;;21.72;37.17
75972;BME280;64651;47.540;19.088;2023-12-07T16:23:51;100624.59;;;21.73;37.20
75972;BME280;64651;47.540;19.088;2023-12-07T16:28:53;100628.22;;;21.73;37.37
75972;BME280;64651;47.540;19.088;2023-12-07T16:33:55;100635.44;;;21.74;37.36
75972;BME280;64651;47.540;19.088;2023-12-07T16:39:01;100635.44;;;21.74;37.38
75972;BME280;64651;47.540;19.088;2023-12-07T16:44:05;100630.19;;;21.73;37.41
75972;BME280;64651;47.540;19.088;2023-12-07T16:49:07;100629.84;;;21.74;37.54
75972;BME280;64651;47.540;19.088;2023-12-07T16:54:09;100639.75;;;21.72;37.63
75972;BME280;64651;47.540;19.088;2023-12-07T16:59:12;100643.38;;;21.72;37.64
75972;BME280;64651;47.540;19.088;2023-12-07T17:04:14;100653.75;;;21.72;37.66
75972;BME280;64651;47.540;19.088;2023-12-07T17:09:16;100664.75;;;21.77;37.63
75972;BME280;64651;47.540;19.088;2023-12-07T17:14:18;100668.34;;;21.77;37.59
75972;BME280;64651;47.540;19.088;2023-12-07T17:19:21;100668.72;;;21.76;37.63
75972;BME280;64651;47.540;19.088;2023-12-07T17:24:23;100664.63;;;21.73;37.61
75972;BME280;64651;47.540;19.088;2023-12-07T17:29:25;100670.38;;;21.77;37.62
75972;BME280;64651;47.540;19.088;2023-12-07T17:34:28;100676.75;;;21.77;37.54
75972;BME280;64651;47.540;19.088;2023-12-07T17:39:31;100669.88;;;21.75;37.43
75972;BME280;64651;47.540;19.088;2023-12-07T17:44:33;100676.75;;;21.77;37.55
75972;BME280;64651;47.540;19.088;2023-12-07T17:49:36;100666.25;;;21.74;37.48
75972;BME280;64651;47.540;19.088;2023-12-07T17:54:38;100673.16;;;21.77;37.43
75972;BME280;64651;47.540;19.088;2023-12-07T17:59:42;100676.06;;;21.80;37.43
75972;BME280;64651;47.540;19.088;2023-12-07T18:04:44;100670.81;;;21.79;37.38
75972;BME280;64651;47.540;19.088;2023-12-07T18:09:46;100672.44;;;21.80;37.38
75972;BME280;64651;47.540;19.088;2023-12-07T18:14:48;100680.84;;;21.80;37.32
75972;BME280;64651;47.540;19.088;2023-12-07T18:19:50;100684.37;;;21.77;37.42
75972;BME280;64651;47.540;19.088;2023-12-07T18:24:54;100692.88;;;21.80;37.60
75972;BME280;64651;47.540;19.088;2023-12-07T18:29:57;100702.94;;;21.81;37.64
75972;BME280;64651;47.540;19.088;2023-12-07T18:35:00;100700.47;;;21.80;37.75
75972;BME280;64651;47.540;19.088;2023-12-07T18:40:02;100709.69;;;21.80;37.75
75972;BME280;64651;47.540;19.088;2023-12-07T18:45:05;100695.56;;;21.77;37.75
75972;BME280;64651;47.540;19.088;2023-12-07T18:50:07;100695.19;;;21.78;37.76
75972;BME280;64651;47.540;19.088;2023-12-07T18:55:13;100698.16;;;21.82;37.66
75972;BME280;64651;47.540;19.088;2023-12-07T19:00:16;100696.84;;;21.79;37.71
75972;BME280;64651;47.540;19.088;2023-12-07T19:05:20;100706.53;;;21.82;37.66
75972;BME280;64651;47.540;19.088;2023-12-07T19:10:23;100698.16;;;21.82;37.60
75972;BME280;64651;47.540;19.088;2023-12-07T19:15:25;100699.31;;;21.81;37.68
75972;BME280;64651;47.540;19.088;2023-12-07T19:20:28;100701.63;;;21.79;37.71
75972;BME280;64651;47.540;19.088;2023-12-07T19:25:30;100704.91;;;21.81;37.69
75972;BME280;64651;47.540;19.088;2023-12-07T19:30:32;100699.97;;;21.78;37.66
75972;BME280;64651;47.540;19.088;2023-12-07T19:35:34;100699.66;;;21.79;37.69
75972;BME280;64651;47.540;19.088;2023-12-07T19:40:37;100711.66;;;21.80;37.71
75972;BME280;64651;47.540;19.088;2023-12-07T19:45:41;100703.25;;;21.80;37.67
75972;BME280;64651;47.540;19.088;2023-12-07T19:50:43;100702.09;;;21.81;37.57
75972;BME280;64651;47.540;19.088;2023-12-07T19:55:46;100706.88;;;21.80;37.61
75972;BME280;64651;47.540;19.088;2023-12-07T20:00:48;100710.16;;;21.82;37.47
75972;BME280;64651;47.540;19.088;2023-12-07T20:05:50;100719.84;;;21.85;37.40
75972;BME280;64651;47.540;19.088;2023-12-07T20:10:52;100712.59;;;21.84;37.39
75972;BME280;64651;47.540;19.088;2023-12-07T20:15:54;100729.78;;;21.82;37.38
75972;BME280;64651;47.540;19.088;2023-12-07T20:20:57;100722.88;;;21.80;37.41
75972;BME280;64651;47.540;19.088;2023-12-07T20:26:01;100723.34;;;21.82;37.36
75972;BME280;64651;47.540;19.088;2023-12-07T20:31:04;100727.31;;;21.81;37.36
75972;BME280;64651;47.540;19.088;2023-12-07T20:36:07;100724.63;;;21.84;37.35
75972;BME280;64651;47.540;19.088;2023-12-07T20:41:09;100730.22;;;21.84;37.27
75972;BME280;64651;47.540;19.088;2023-12-07T20:46:11;100737.81;;;21.84;37.31
75972;BME280;64651;47.540;19.088;2023-12-07T20:51:13;100744.59;;;21.83;37.24
75972;BME280;64651;47.540;19.088;2023-12-07T20:56:15;100742.97;;;21.82;37.31
75972;BME280;64651;47.540;19.088;2023-12-07T21:01:20;100744.94;;;21.81;37.21
75972;BME280;64651;47.540;19.088;2023-12-07T21:06:22;100768.28;;;21.85;37.27
75972;BME280;64651;47.540;19.088;2023-12-07T21:11:28;100773.06;;;21.85;37.27
75972;BME280;64651;47.540;19.088;2023-12-07T21:16:30;100767.03;;;21.83;37.30
75972;BME280;64651;47.540;19.088;2023-12-07T21:21:33;100765.84;;;21.84;37.37
75972;BME280;64651;47.540;19.088;2023-12-07T21:26:35;100760.13;;;21.80;37.32
75972;BME280;64651;47.540;19.088;2023-12-07T21:31:37;100768.63;;;21.84;37.39
75972;BME280;64651;47.540;19.088;2023-12-07T21:36:39;100769.34;;;21.81;38.53
75972;BME280;64651;47.540;19.088;2023-12-07T21:41:45;100779.16;;;21.87;39.37
75972;BME280;64651;47.540;19.088;2023-12-07T21:46:49;100780.31;;;21.86;39.78
75972;BME280;64651;47.540;19.088;2023-12-07T21:51:51;100788.72;;;21.86;39.98
75972;BME280;64651;47.540;19.088;2023-12-07T21:56:53;100781.38;;;21.81;40.00
75972;BME280;64651;47.540;19.088;2023-12-07T22:01:55;100779.50;;;21.85;39.99
75972;BME280;64651;47.540;19.088;2023-12-07T22:06:57;100777.84;;;21.84;40.07
75972;BME280;64651;47.540;19.088;2023-12-07T22:12:00;100781.97;;;21.87;40.02
75972;BME280;64651;47.540;19.088;2023-12-07T22:17:03;100772.63;;;21.83;40.20
75972;BME280;64651;47.540;19.088;2023-12-07T22:22:05;100771.09;;;21.85;40.11
75972;BME280;64651;47.540;19.088;2023-12-07T22:27:07;100771.91;;;21.86;40.11
75972;BME280;64651;47.540;19.088;2023-12-07T22:32:09;100778.69;;;21.85;40.06
75972;BME280;64651;47.540;19.088;2023-12-07T22:37:11;100774.03;;;21.89;39.95
75972;BME280;64651;47.540;19.088;2023-12-07T22:42:14;100758.25;;;21.84;39.96
75972;BME280;64651;47.540;19.088;2023-12-07T22:47:16;100757.44;;;21.84;39.92
75972;BME280;64651;47.540;19.088;2023-12-07T22:52:18;100754.19;;;21.82;39.77
75972;BME280;64651;47.540;19.088;2023-12-07T22:57:20;100749.25;;;21.79;39.71
75972;BME280;64651;47.540;19.088;2023-12-07T23:02:23;100751.38;;;21.82;39.65
75972;BME280;64651;47.540;19.088;2023-12-07T23:07:25;100746.09;;;21.80;39.41
75972;BME280;64651;47.540;19.088;2023-12-07T23:12:28;100749.72;;;21.81;39.36
75972;BME280;64651;47.540;19.088;2023-12-07T23:17:30;100741.31;;;21.81;39.34
75972;BME280;64651;47.540;19.088;2023-12-07T23:22:33;100735.59;;;21.77;39.33
75972;BME280;64651;47.540;19.088;2023-12-07T23:27:35;100743.66;;;21.79;39.29
75972;BME280;64651;47.540;19.088;2023-12-07T23:32:37;100739.69;;;21.80;39.22
75972;BME280;64651;47.540;19.088;2023-12-07T23:37:39;100735.72;;;21.81;39.06
75972;BME280;64651;47.540;19.088;2023-12-07T23:42:41;100721.22;;;21.79;39.01
75972;BME280;64651;47.540;19.088;2023-12-07T23:47:44;100725.56;;;21.76;38.96
75972;BME280;64651;47.540;19.088;2023-12-07T23:52:46;100717.16;;;21.76;38.91
75972;BME280;64651;47.540;19.088;2023-12-07T23:57:48;100714.69;;;21.75;38.82
